DFW Airport, Texas
Current Conditions -  °F | °C
As of 7:53 AM on Monday 24 Nov 2014 (Local Time) from KDFW Reporting Station
Few Clouds Few Clouds  
Wind Chill:   Ceiling: Unl
Heat Index:   Visibility: 10mi
Dew Point:   Wind: 9mph
Humidity: 63%   Direction: 310°NW
Pressure: 29.99"   Gusts: NA
Location:  32.9°N, 97.03°W
Report Text: KDFW 241353Z 31008KT 10SM FEW250 07/00 A2999 RMK AO2 PRESRR SLP154 T00670000 $
Loading
Personal Weather Stations






























Interactive Weather Map New forecast layout! Learn more

10-Day Weather Forecast

Advertisements
Track Severe Weather on mobile